sensor_id;sensor_type;location;lat;lon;timestamp;temperature;humidity
7842;DHT22;3966;51.052;13.820;2023-07-20T00:00:19;17.60;99.90
7842;DHT22;3966;51.052;13.820;2023-07-20T00:02:45;17.70;99.90
7842;DHT22;3966;51.052;13.820;2023-07-20T00:05:11;17.80;99.90
7842;DHT22;3966;51.052;13.820;2023-07-20T00:07:36;17.80;99.90
7842;DHT22;3966;51.052;13.820;2023-07-20T00:10:02;17.70;99.90
7842;DHT22;3966;51.052;13.820;2023-07-20T00:12:28;17.70;99.90
7842;DHT22;3966;51.052;13.820;2023-07-20T00:14:54;17.60;99.90
7842;DHT22;3966;51.052;13.820;2023-07-20T00:17:20;17.60;99.90
7842;DHT22;3966;51.052;13.820;2023-07-20T00:19:46;17.60;99.90
7842;DHT22;3966;51.052;13.820;2023-07-20T00:22:11;17.50;99.90
7842;DHT22;3966;51.052;13.820;2023-07-20T00:24:38;17.40;99.90
7842;DHT22;3966;51.052;13.820;2023-07-20T00:27:04;17.50;99.90
7842;DHT22;3966;51.052;13.820;2023-07-20T00:29:30;17.60;99.90
7842;DHT22;3966;51.052;13.820;2023-07-20T00:31:55;17.50;99.90
7842;DHT22;3966;51.052;13.820;2023-07-20T00:34:21;17.50;99.90
7842;DHT22;3966;51.052;13.820;2023-07-20T00:36:47;17.60;99.90
7842;DHT22;3966;51.052;13.820;2023-07-20T00:39:14;17.50;99.90
7842;DHT22;3966;51.052;13.820;2023-07-20T00:41:40;17.50;99.90
7842;DHT22;3966;51.052;13.820;2023-07-20T00:44:06;17.60;99.90
7842;DHT22;3966;51.052;13.820;2023-07-20T00:46:31;17.50;99.90
7842;DHT22;3966;51.052;13.820;2023-07-20T00:48:58;17.40;99.90
7842;DHT22;3966;51.052;13.820;2023-07-20T00:51:25;17.40;99.90
7842;DHT22;3966;51.052;13.820;2023-07-20T00:53:52;17.40;99.90
7842;DHT22;3966;51.052;13.820;2023-07-20T00:56:19;17.40;99.90
7842;DHT22;3966;51.052;13.820;2023-07-20T00:58:44;17.40;99.90
7842;DHT22;3966;51.052;13.820;2023-07-20T01:01:11;17.30;99.90
7842;DHT22;3966;51.052;13.820;2023-07-20T01:03:37;17.30;99.90
7842;DHT22;3966;51.052;13.820;2023-07-20T01:06:14;17.30;99.90
7842;DHT22;3966;51.052;13.820;2023-07-20T01:08:56;17.40;99.90
7842;DHT22;3966;51.052;13.820;2023-07-20T01:11:43;17.30;99.90
7842;DHT22;3966;51.052;13.820;2023-07-20T01:14:12;17.20;99.90
7842;DHT22;3966;51.052;13.820;2023-07-20T01:16:38;17.10;99.90
7842;DHT22;3966;51.052;13.820;2023-07-20T01:19:03;17.00;99.90
7842;DHT22;3966;51.052;13.820;2023-07-20T01:21:51;17.10;99.90
7842;DHT22;3966;51.052;13.820;2023-07-20T01:33:15;17.20;99.90
7842;DHT22;3966;51.052;13.820;2023-07-20T01:35:43;17.20;99.90
7842;DHT22;3966;51.052;13.820;2023-07-20T01:38:11;17.10;99.90
7842;DHT22;3966;51.052;13.820;2023-07-20T01:40:38;17.00;99.90
7842;DHT22;3966;51.052;13.820;2023-07-20T01:43:05;17.00;99.90
7842;DHT22;3966;51.052;13.820;2023-07-20T01:45:30;17.10;99.90
7842;DHT22;3966;51.052;13.820;2023-07-20T01:47:56;17.10;99.90
7842;DHT22;3966;51.052;13.820;2023-07-20T01:50:22;17.20;99.90
7842;DHT22;3966;51.052;13.820;2023-07-20T01:52:47;17.30;99.90
7842;DHT22;3966;51.052;13.820;2023-07-20T01:55:13;17.30;99.90
7842;DHT22;3966;51.052;13.820;2023-07-20T01:57:39;17.30;99.90
7842;DHT22;3966;51.052;13.820;2023-07-20T02:00:05;17.30;99.90
7842;DHT22;3966;51.052;13.820;2023-07-20T02:02:32;17.30;99.90
7842;DHT22;3966;51.052;13.820;2023-07-20T02:04:57;17.20;99.90
7842;DHT22;3966;51.052;13.820;2023-07-20T02:07:23;17.20;99.90
7842;DHT22;3966;51.052;13.820;2023-07-20T02:09:49;17.20;99.90
7842;DHT22;3966;51.052;13.820;2023-07-20T02:12:15;17.20;99.90
7842;DHT22;3966;51.052;13.820;2023-07-20T02:14:40;17.20;99.90
7842;DHT22;3966;51.052;13.820;2023-07-20T02:17:06;17.20;99.90
7842;DHT22;3966;51.052;13.820;2023-07-20T02:19:31;17.20;99.90
7842;DHT22;3966;51.052;13.820;2023-07-20T02:21:57;17.20;99.90
7842;DHT22;3966;51.052;13.820;2023-07-20T02:24:23;17.20;99.90
7842;DHT22;3966;51.052;13.820;2023-07-20T02:26:50;17.10;99.90
7842;DHT22;3966;51.052;13.820;2023-07-20T02:29:16;17.00;99.90
7842;DHT22;3966;51.052;13.820;2023-07-20T02:31:41;17.00;99.90
7842;DHT22;3966;51.052;13.820;2023-07-20T02:34:08;17.10;99.90
7842;DHT22;3966;51.052;13.820;2023-07-20T02:36:35;17.00;99.90
7842;DHT22;3966;51.052;13.820;2023-07-20T02:39:01;17.00;99.90
7842;DHT22;3966;51.052;13.820;2023-07-20T02:41:32;17.00;99.90
7842;DHT22;3966;51.052;13.820;2023-07-20T02:43:58;17.00;99.90
7842;DHT22;3966;51.052;13.820;2023-07-20T02:46:24;17.00;99.90
7842;DHT22;3966;51.052;13.820;2023-07-20T02:48:49;17.00;99.90
7842;DHT22;3966;51.052;13.820;2023-07-20T02:51:15;17.00;99.90
7842;DHT22;3966;51.052;13.820;2023-07-20T02:53:41;17.00;99.90
7842;DHT22;3966;51.052;13.820;2023-07-20T02:56:07;17.00;99.90
7842;DHT22;3966;51.052;13.820;2023-07-20T02:58:34;17.00;99.90
7842;DHT22;3966;51.052;13.820;2023-07-20T03:01:02;16.90;99.90
7842;DHT22;3966;51.052;13.820;2023-07-20T03:03:28;16.90;99.90
7842;DHT22;3966;51.052;13.820;2023-07-20T03:05:54;16.90;99.90
7842;DHT22;3966;51.052;13.820;2023-07-20T03:08:21;16.90;99.90
7842;DHT22;3966;51.052;13.820;2023-07-20T03:10:47;16.80;99.90
7842;DHT22;3966;51.052;13.820;2023-07-20T03:13:13;16.90;99.90
7842;DHT22;3966;51.052;13.820;2023-07-20T03:15:39;16.90;99.90
7842;DHT22;3966;51.052;13.820;2023-07-20T03:18:05;16.90;99.90
7842;DHT22;3966;51.052;13.820;2023-07-20T03:20:31;16.80;99.90
7842;DHT22;3966;51.052;13.820;2023-07-20T03:22:57;16.90;99.90
7842;DHT22;3966;51.052;13.820;2023-07-20T03:25:22;16.90;99.90
7842;DHT22;3966;51.052;13.820;2023-07-20T03:27:48;16.80;99.90
7842;DHT22;3966;51.052;13.820;2023-07-20T03:30:14;16.80;99.90
7842;DHT22;3966;51.052;13.820;2023-07-20T03:32:40;16.80;99.90
7842;DHT22;3966;51.052;13.820;2023-07-20T03:35:06;16.80;99.90
7842;DHT22;3966;51.052;13.820;2023-07-20T03:37:32;16.80;99.90
7842;DHT22;3966;51.052;13.820;2023-07-20T03:40:00;16.80;99.90
7842;DHT22;3966;51.052;13.820;2023-07-20T03:42:25;16.80;99.90
7842;DHT22;3966;51.052;13.820;2023-07-20T03:44:51;16.80;99.90
7842;DHT22;3966;51.052;13.820;2023-07-20T03:47:17;16.80;99.90
7842;DHT22;3966;51.052;13.820;2023-07-20T03:49:42;16.70;99.90
7842;DHT22;3966;51.052;13.820;2023-07-20T03:52:08;16.80;99.90
7842;DHT22;3966;51.052;13.820;2023-07-20T03:54:34;16.80;99.90
7842;DHT22;3966;51.052;13.820;2023-07-20T03:56:59;16.80;99.90
7842;DHT22;3966;51.052;13.820;2023-07-20T03:59:26;16.80;99.90
7842;DHT22;3966;51.052;13.820;2023-07-20T04:01:51;16.80;99.90
7842;DHT22;3966;51.052;13.820;2023-07-20T04:04:17;16.90;99.90
7842;DHT22;3966;51.052;13.820;2023-07-20T04:06:43;16.90;99.90
7842;DHT22;3966;51.052;13.820;2023-07-20T04:09:11;16.90;99.90
7842;DHT22;3966;51.052;13.820;2023-07-20T04:11:37;16.90;99.90
7842;DHT22;3966;51.052;13.820;2023-07-20T04:14:04;16.90;99.90
7842;DHT22;3966;51.052;13.820;2023-07-20T04:16:29;17.00;99.90
7842;DHT22;3966;51.052;13.820;2023-07-20T04:18:58;16.90;99.90
7842;DHT22;3966;51.052;13.820;2023-07-20T04:21:27;16.90;99.90
7842;DHT22;3966;51.052;13.820;2023-07-20T04:23:52;17.00;99.90
7842;DHT22;3966;51.052;13.820;2023-07-20T04:26:18;17.00;99.90
7842;DHT22;3966;51.052;13.820;2023-07-20T04:28:44;17.00;99.90
7842;DHT22;3966;51.052;13.820;2023-07-20T04:31:13;17.10;99.90
7842;DHT22;3966;51.052;13.820;2023-07-20T04:33:39;17.00;99.90
7842;DHT22;3966;51.052;13.820;2023-07-20T04:36:05;17.10;99.90
7842;DHT22;3966;51.052;13.820;2023-07-20T04:38:31;17.10;99.90
7842;DHT22;3966;51.052;13.820;2023-07-20T04:40:57;17.20;99.90
7842;DHT22;3966;51.052;13.820;2023-07-20T04:43:22;17.20;99.90
7842;DHT22;3966;51.052;13.820;2023-07-20T04:45:48;17.30;99.90
7842;DHT22;3966;51.052;13.820;2023-07-20T04:48:15;17.20;99.90
7842;DHT22;3966;51.052;13.820;2023-07-20T04:50:42;17.10;99.90
7842;DHT22;3966;51.052;13.820;2023-07-20T04:53:11;17.10;99.90
7842;DHT22;3966;51.052;13.820;2023-07-20T04:55:38;17.10;99.90
7842;DHT22;3966;51.052;13.820;2023-07-20T04:58:05;17.10;99.90
7842;DHT22;3966;51.052;13.820;2023-07-20T05:00:32;17.10;99.90
7842;DHT22;3966;51.052;13.820;2023-07-20T05:02:58;17.20;99.90
7842;DHT22;3966;51.052;13.820;2023-07-20T05:05:24;17.30;99.90
7842;DHT22;3966;51.052;13.820;2023-07-20T05:07:49;17.30;99.90
7842;DHT22;3966;51.052;13.820;2023-07-20T05:10:16;17.30;99.90
7842;DHT22;3966;51.052;13.820;2023-07-20T05:12:41;17.20;99.90
7842;DHT22;3966;51.052;13.820;2023-07-20T05:15:07;17.30;99.90
7842;DHT22;3966;51.052;13.820;2023-07-20T05:17:33;17.20;99.90
7842;DHT22;3966;51.052;13.820;2023-07-20T05:19:59;17.30;99.90
7842;DHT22;3966;51.052;13.820;2023-07-20T05:22:24;17.20;99.90
7842;DHT22;3966;51.052;13.820;2023-07-20T05:24:50;17.20;99.90
7842;DHT22;3966;51.052;13.820;2023-07-20T05:27:16;17.30;99.90
7842;DHT22;3966;51.052;13.820;2023-07-20T05:29:46;17.30;99.90
7842;DHT22;3966;51.052;13.820;2023-07-20T05:32:14;17.30;99.90
7842;DHT22;3966;51.052;13.820;2023-07-20T05:34:40;17.40;99.90
7842;DHT22;3966;51.052;13.820;2023-07-20T05:37:06;17.50;99.90
7842;DHT22;3966;51.052;13.820;2023-07-20T05:39:34;17.60;99.90
7842;DHT22;3966;51.052;13.820;2023-07-20T05:42:00;17.60;99.90
7842;DHT22;3966;51.052;13.820;2023-07-20T05:44:26;17.60;99.90
7842;DHT22;3966;51.052;13.820;2023-07-20T05:46:51;17.60;99.90
7842;DHT22;3966;51.052;13.820;2023-07-20T05:49:17;17.60;99.90
7842;DHT22;3966;51.052;13.820;2023-07-20T05:51:42;17.60;99.90
7842;DHT22;3966;51.052;13.820;2023-07-20T05:54:08;17.70;99.90
7842;DHT22;3966;51.052;13.820;2023-07-20T05:56:34;17.70;99.90
7842;DHT22;3966;51.052;13.820;2023-07-20T05:58:59;17.80;99.90
7842;DHT22;3966;51.052;13.820;2023-07-20T06:01:25;17.80;99.90
7842;DHT22;3966;51.052;13.820;2023-07-20T06:03:53;17.90;99.90
7842;DHT22;3966;51.052;13.820;2023-07-20T06:06:19;17.90;99.90
7842;DHT22;3966;51.052;13.820;2023-07-20T06:08:45;17.80;99.90
7842;DHT22;3966;51.052;13.820;2023-07-20T06:11:11;17.80;99.90
7842;DHT22;3966;51.052;13.820;2023-07-20T06:13:36;17.70;99.90
7842;DHT22;3966;51.052;13.820;2023-07-20T06:16:02;17.70;99.90
7842;DHT22;3966;51.052;13.820;2023-07-20T06:18:29;17.80;99.90
7842;DHT22;3966;51.052;13.820;2023-07-20T06:20:56;18.00;99.90
7842;DHT22;3966;51.052;13.820;2023-07-20T06:23:22;18.10;99.90
7842;DHT22;3966;51.052;13.820;2023-07-20T06:25:48;18.00;99.90
7842;DHT22;3966;51.052;13.820;2023-07-20T06:28:14;18.10;99.90
7842;DHT22;3966;51.052;13.820;2023-07-20T06:30:40;18.10;99.90
7842;DHT22;3966;51.052;13.820;2023-07-20T06:33:05;17.90;99.90
7842;DHT22;3966;51.052;13.820;2023-07-20T06:35:32;17.80;99.90
7842;DHT22;3966;51.052;13.820;2023-07-20T06:37:57;17.50;99.90
7842;DHT22;3966;51.052;13.820;2023-07-20T06:40:26;17.30;99.90
7842;DHT22;3966;51.052;13.820;2023-07-20T06:42:51;17.30;99.90
7842;DHT22;3966;51.052;13.820;2023-07-20T06:45:17;17.40;99.90
7842;DHT22;3966;51.052;13.820;2023-07-20T06:47:43;17.40;99.90
7842;DHT22;3966;51.052;13.820;2023-07-20T06:50:09;17.30;99.90
7842;DHT22;3966;51.052;13.820;2023-07-20T06:52:35;17.20;99.90
7842;DHT22;3966;51.052;13.820;2023-07-20T06:55:01;17.20;99.90
7842;DHT22;3966;51.052;13.820;2023-07-20T06:57:26;17.20;99.90
7842;DHT22;3966;51.052;13.820;2023-07-20T06:59:52;17.00;99.90
7842;DHT22;3966;51.052;13.820;2023-07-20T07:02:19;17.10;99.90
7842;DHT22;3966;51.052;13.820;2023-07-20T07:04:44;17.10;99.90
7842;DHT22;3966;51.052;13.820;2023-07-20T07:07:15;16.90;99.90
7842;DHT22;3966;51.052;13.820;2023-07-20T07:09:41;16.90;99.90
7842;DHT22;3966;51.052;13.820;2023-07-20T07:12:07;17.00;99.90
7842;DHT22;3966;51.052;13.820;2023-07-20T07:14:33;17.00;99.90
7842;DHT22;3966;51.052;13.820;2023-07-20T07:17:00;17.00;99.90
7842;DHT22;3966;51.052;13.820;2023-07-20T07:19:25;17.10;99.90
7842;DHT22;3966;51.052;13.820;2023-07-20T07:21:51;17.10;99.90
7842;DHT22;3966;51.052;13.820;2023-07-20T07:24:17;17.20;99.90
7842;DHT22;3966;51.052;13.820;2023-07-20T07:26:42;17.20;99.90
7842;DHT22;3966;51.052;13.820;2023-07-20T07:29:08;17.30;99.90
7842;DHT22;3966;51.052;13.820;2023-07-20T07:31:37;17.40;99.90
7842;DHT22;3966;51.052;13.820;2023-07-20T07:34:04;17.50;99.90
7842;DHT22;3966;51.052;13.820;2023-07-20T07:36:31;17.50;99.90
7842;DHT22;3966;51.052;13.820;2023-07-20T07:38:56;17.40;99.90
7842;DHT22;3966;51.052;13.820;2023-07-20T07:41:22;17.50;99.90
7842;DHT22;3966;51.052;13.820;2023-07-20T07:43:48;17.50;99.90
7842;DHT22;3966;51.052;13.820;2023-07-20T07:46:14;17.80;99.90
7842;DHT22;3966;51.052;13.820;2023-07-20T07:48:40;17.70;99.90
7842;DHT22;3966;51.052;13.820;2023-07-20T07:51:06;17.80;99.90
7842;DHT22;3966;51.052;13.820;2023-07-20T07:53:32;17.90;99.90
7842;DHT22;3966;51.052;13.820;2023-07-20T07:55:58;17.90;99.90
7842;DHT22;3966;51.052;13.820;2023-07-20T07:58:24;18.00;99.90
7842;DHT22;3966;51.052;13.820;2023-07-20T08:00:49;18.20;99.90
7842;DHT22;3966;51.052;13.820;2023-07-20T08:03:15;18.20;99.90
7842;DHT22;3966;51.052;13.820;2023-07-20T08:05:41;18.40;99.90
7842;DHT22;3966;51.052;13.820;2023-07-20T08:08:07;18.50;99.90
7842;DHT22;3966;51.052;13.820;2023-07-20T08:10:34;18.20;99.90
7842;DHT22;3966;51.052;13.820;2023-07-20T08:13:00;18.40;99.90
7842;DHT22;3966;51.052;13.820;2023-07-20T08:15:25;18.60;99.90
7842;DHT22;3966;51.052;13.820;2023-07-20T08:17:51;18.50;99.90
7842;DHT22;3966;51.052;13.820;2023-07-20T08:20:18;18.50;99.90
7842;DHT22;3966;51.052;13.820;2023-07-20T08:22:43;18.60;99.90
7842;DHT22;3966;51.052;13.820;2023-07-20T08:25:09;18.40;99.90
7842;DHT22;3966;51.052;13.820;2023-07-20T08:27:36;18.50;99.90
7842;DHT22;3966;51.052;13.820;2023-07-20T08:30:03;18.50;99.90
7842;DHT22;3966;51.052;13.820;2023-07-20T08:32:29;18.50;99.90
7842;DHT22;3966;51.052;13.820;2023-07-20T08:34:55;18.70;99.90
7842;DHT22;3966;51.052;13.820;2023-07-20T08:37:22;18.60;99.90
7842;DHT22;3966;51.052;13.820;2023-07-20T08:39:48;18.60;99.90
7842;DHT22;3966;51.052;13.820;2023-07-20T08:42:15;18.60;99.90
7842;DHT22;3966;51.052;13.820;2023-07-20T08:44:42;18.40;99.90
7842;DHT22;3966;51.052;13.820;2023-07-20T08:47:10;18.50;99.90
7842;DHT22;3966;51.052;13.820;2023-07-20T08:49:39;18.70;99.90
7842;DHT22;3966;51.052;13.820;2023-07-20T08:52:06;18.80;99.90
7842;DHT22;3966;51.052;13.820;2023-07-20T08:54:32;18.80;99.90
7842;DHT22;3966;51.052;13.820;2023-07-20T08:57:01;19.00;99.90
7842;DHT22;3966;51.052;13.820;2023-07-20T08:59:29;19.20;99.90
7842;DHT22;3966;51.052;13.820;2023-07-20T09:01:57;19.10;99.90
7842;DHT22;3966;51.052;13.820;2023-07-20T09:04:23;19.00;99.90
7842;DHT22;3966;51.052;13.820;2023-07-20T09:06:49;19.00;99.90
7842;DHT22;3966;51.052;13.820;2023-07-20T09:09:15;19.00;99.90
7842;DHT22;3966;51.052;13.820;2023-07-20T09:11:41;19.20;99.90
7842;DHT22;3966;51.052;13.820;2023-07-20T09:14:08;19.30;99.90
7842;DHT22;3966;51.052;13.820;2023-07-20T09:16:53;19.40;99.90
7842;DHT22;3966;51.052;13.820;2023-07-20T09:19:20;19.70;99.90
7842;DHT22;3966;51.052;13.820;2023-07-20T09:21:49;19.60;99.90
7842;DHT22;3966;51.052;13.820;2023-07-20T09:24:20;19.60;99.90
7842;DHT22;3966;51.052;13.820;2023-07-20T09:26:47;19.50;99.90
7842;DHT22;3966;51.052;13.820;2023-07-20T09:29:20;19.60;99.90
7842;DHT22;3966;51.052;13.820;2023-07-20T09:32:02;19.60;99.90
7842;DHT22;3966;51.052;13.820;2023-07-20T09:34:32;19.60;99.90
7842;DHT22;3966;51.052;13.820;2023-07-20T09:36:59;19.70;99.90
7842;DHT22;3966;51.052;13.820;2023-07-20T09:39:24;19.70;99.90
7842;DHT22;3966;51.052;13.820;2023-07-20T09:41:51;20.10;99.90
7842;DHT22;3966;51.052;13.820;2023-07-20T09:44:17;20.20;99.90
7842;DHT22;3966;51.052;13.820;2023-07-20T09:46:49;19.90;99.90
7842;DHT22;3966;51.052;13.820;2023-07-20T09:49:17;20.00;99.90
7842;DHT22;3966;51.052;13.820;2023-07-20T09:51:44;20.10;99.90
7842;DHT22;3966;51.052;13.820;2023-07-20T09:54:11;20.00;99.90
7842;DHT22;3966;51.052;13.820;2023-07-20T09:56:39;20.00;99.90
7842;DHT22;3966;51.052;13.820;2023-07-20T09:59:06;19.90;99.90
7842;DHT22;3966;51.052;13.820;2023-07-20T10:01:32;20.00;99.90
7842;DHT22;3966;51.052;13.820;2023-07-20T10:04:03;19.80;99.90
7842;DHT22;3966;51.052;13.820;2023-07-20T10:06:32;19.60;99.90
7842;DHT22;3966;51.052;13.820;2023-07-20T10:09:02;19.50;99.90
7842;DHT22;3966;51.052;13.820;2023-07-20T10:11:35;19.50;99.90
7842;DHT22;3966;51.052;13.820;2023-07-20T10:14:03;19.40;99.90
7842;DHT22;3966;51.052;13.820;2023-07-20T10:16:35;19.00;99.90
7842;DHT22;3966;51.052;13.820;2023-07-20T10:19:42;18.40;99.90
7842;DHT22;3966;51.052;13.820;2023-07-20T10:22:13;18.20;99.90
7842;DHT22;3966;51.052;13.820;2023-07-20T10:24:39;18.20;99.90
7842;DHT22;3966;51.052;13.820;2023-07-20T10:27:07;18.20;99.90
7842;DHT22;3966;51.052;13.820;2023-07-20T10:29:33;18.20;99.90
7842;DHT22;3966;51.052;13.820;2023-07-20T10:31:59;18.10;99.90
7842;DHT22;3966;51.052;13.820;2023-07-20T10:34:25;18.30;99.90
7842;DHT22;3966;51.052;13.820;2023-07-20T10:36:51;18.20;99.90
7842;DHT22;3966;51.052;13.820;2023-07-20T10:39:24;18.30;99.90
7842;DHT22;3966;51.052;13.820;2023-07-20T10:41:50;18.30;99.90
7842;DHT22;3966;51.052;13.820;2023-07-20T10:44:24;18.30;99.90
7842;DHT22;3966;51.052;13.820;2023-07-20T10:46:50;18.30;99.90
7842;DHT22;3966;51.052;13.820;2023-07-20T10:49:15;18.40;99.90
7842;DHT22;3966;51.052;13.820;2023-07-20T10:54:33;18.50;99.90
7842;DHT22;3966;51.052;13.820;2023-07-20T10:56:56;18.50;99.90
7842;DHT22;3966;51.052;13.820;2023-07-20T11:01:55;18.70;99.90
7842;DHT22;3966;51.052;13.820;2023-07-20T11:04:38;18.80;99.90
7842;DHT22;3966;51.052;13.820;2023-07-20T11:07:05;18.90;99.90
7842;DHT22;3966;51.052;13.820;2023-07-20T11:09:38;18.90;99.90
7842;DHT22;3966;51.052;13.820;2023-07-20T11:12:14;18.90;99.90
7842;DHT22;3966;51.052;13.820;2023-07-20T11:14:58;18.80;99.90
7842;DHT22;3966;51.052;13.820;2023-07-20T11:17:31;18.70;99.90
7842;DHT22;3966;51.052;13.820;2023-07-20T11:19:58;18.70;99.90
7842;DHT22;3966;51.052;13.820;2023-07-20T11:22:26;18.80;99.90
7842;DHT22;3966;51.052;13.820;2023-07-20T11:24:55;18.80;99.90
7842;DHT22;3966;51.052;13.820;2023-07-20T11:27:21;18.90;99.90
7842;DHT22;3966;51.052;13.820;2023-07-20T11:29:48;18.90;99.90
7842;DHT22;3966;51.052;13.820;2023-07-20T11:32:23;19.00;99.90
7842;DHT22;3966;51.052;13.820;2023-07-20T11:34:48;19.10;99.90
7842;DHT22;3966;51.052;13.820;2023-07-20T11:37:15;19.40;99.90
7842;DHT22;3966;51.052;13.820;2023-07-20T11:39:42;19.30;99.90
7842;DHT22;3966;51.052;13.820;2023-07-20T11:42:08;19.60;99.90
7842;DHT22;3966;51.052;13.820;2023-07-20T11:44:34;19.70;99.90
7842;DHT22;3966;51.052;13.820;2023-07-20T11:47:12;20.00;99.90
7842;DHT22;3966;51.052;13.820;2023-07-20T11:49:40;20.40;99.90
7842;DHT22;3966;51.052;13.820;2023-07-20T11:52:07;20.30;99.90
7842;DHT22;3966;51.052;13.820;2023-07-20T11:54:39;20.40;99.90
7842;DHT22;3966;51.052;13.820;2023-07-20T11:57:05;20.60;99.90
7842;DHT22;3966;51.052;13.820;2023-07-20T11:59:31;20.50;99.90
7842;DHT22;3966;51.052;13.820;2023-07-20T12:02:02;20.50;99.90
7842;DHT22;3966;51.052;13.820;2023-07-20T12:04:33;20.60;99.90
7842;DHT22;3966;51.052;13.820;2023-07-20T12:06:59;21.00;99.90
7842;DHT22;3966;51.052;13.820;2023-07-20T12:09:25;20.90;99.90
7842;DHT22;3966;51.052;13.820;2023-07-20T12:11:51;20.80;99.90
7842;DHT22;3966;51.052;13.820;2023-07-20T12:14:17;20.80;99.90
7842;DHT22;3966;51.052;13.820;2023-07-20T12:16:42;20.80;99.90
7842;DHT22;3966;51.052;13.820;2023-07-20T12:19:11;20.40;99.90
7842;DHT22;3966;51.052;13.820;2023-07-20T12:21:38;20.40;99.90
7842;DHT22;3966;51.052;13.820;2023-07-20T12:24:06;20.40;99.90
7842;DHT22;3966;51.052;13.820;2023-07-20T12:26:33;20.10;99.90
7842;DHT22;3966;51.052;13.820;2023-07-20T12:28:59;19.90;99.90
7842;DHT22;3966;51.052;13.820;2023-07-20T12:31:27;20.00;99.90
7842;DHT22;3966;51.052;13.820;2023-07-20T12:33:53;19.80;99.90
7842;DHT22;3966;51.052;13.820;2023-07-20T12:36:22;19.70;99.90
7842;DHT22;3966;51.052;13.820;2023-07-20T12:38:48;19.70;99.90
7842;DHT22;3966;51.052;13.820;2023-07-20T12:41:14;19.60;99.90
7842;DHT22;3966;51.052;13.820;2023-07-20T12:43:41;19.50;99.90
7842;DHT22;3966;51.052;13.820;2023-07-20T12:46:07;19.60;99.90
7842;DHT22;3966;51.052;13.820;2023-07-20T12:48:33;19.50;99.90
7842;DHT22;3966;51.052;13.820;2023-07-20T12:50:58;19.50;99.90
7842;DHT22;3966;51.052;13.820;2023-07-20T12:53:24;19.40;99.90
7842;DHT22;3966;51.052;13.820;2023-07-20T12:55:50;19.00;99.90
7842;DHT22;3966;51.052;13.820;2023-07-20T12:58:15;18.50;99.90
7842;DHT22;3966;51.052;13.820;2023-07-20T13:00:41;18.40;99.90
7842;DHT22;3966;51.052;13.820;2023-07-20T13:03:07;18.40;99.90
7842;DHT22;3966;51.052;13.820;2023-07-20T13:05:34;18.20;99.90
7842;DHT22;3966;51.052;13.820;2023-07-20T13:08:01;18.30;99.90
7842;DHT22;3966;51.052;13.820;2023-07-20T13:10:27;18.30;99.90
7842;DHT22;3966;51.052;13.820;2023-07-20T13:12:52;18.30;99.90
7842;DHT22;3966;51.052;13.820;2023-07-20T13:15:18;18.30;99.90
7842;DHT22;3966;51.052;13.820;2023-07-20T13:17:44;18.40;99.90
7842;DHT22;3966;51.052;13.820;2023-07-20T13:20:11;18.50;99.90
7842;DHT22;3966;51.052;13.820;2023-07-20T13:22:38;18.70;99.90
7842;DHT22;3966;51.052;13.820;2023-07-20T13:25:04;18.80;99.90
7842;DHT22;3966;51.052;13.820;2023-07-20T13:27:30;18.60;99.90
7842;DHT22;3966;51.052;13.820;2023-07-20T13:29:57;18.50;99.90
7842;DHT22;3966;51.052;13.820;2023-07-20T13:32:23;18.60;99.90
7842;DHT22;3966;51.052;13.820;2023-07-20T13:34:48;18.50;99.90
7842;DHT22;3966;51.052;13.820;2023-07-20T13:37:14;18.60;99.90
7842;DHT22;3966;51.052;13.820;2023-07-20T13:39:41;18.60;99.90
7842;DHT22;3966;51.052;13.820;2023-07-20T13:42:07;18.70;99.90
7842;DHT22;3966;51.052;13.820;2023-07-20T13:44:34;18.70;99.90
7842;DHT22;3966;51.052;13.820;2023-07-20T13:47:01;18.90;99.90
7842;DHT22;3966;51.052;13.820;2023-07-20T13:49:27;19.00;99.90
7842;DHT22;3966;51.052;13.820;2023-07-20T13:51:53;19.20;99.90
7842;DHT22;3966;51.052;13.820;2023-07-20T13:54:18;18.90;99.90
7842;DHT22;3966;51.052;13.820;2023-07-20T13:56:44;18.90;99.90
7842;DHT22;3966;51.052;13.820;2023-07-20T13:59:10;19.10;99.90
7842;DHT22;3966;51.052;13.820;2023-07-20T14:01:35;19.10;99.90
7842;DHT22;3966;51.052;13.820;2023-07-20T14:04:02;19.30;99.90
7842;DHT22;3966;51.052;13.820;2023-07-20T14:06:32;19.30;99.90
7842;DHT22;3966;51.052;13.820;2023-07-20T14:08:59;19.30;99.90
7842;DHT22;3966;51.052;13.820;2023-07-20T14:11:25;19.40;99.90
7842;DHT22;3966;51.052;13.820;2023-07-20T14:13:51;19.30;99.90
7842;DHT22;3966;51.052;13.820;2023-07-20T14:16:21;19.20;99.90
7842;DHT22;3966;51.052;13.820;2023-07-20T14:18:47;19.50;99.90
7842;DHT22;3966;51.052;13.820;2023-07-20T14:21:14;19.50;99.90
7842;DHT22;3966;51.052;13.820;2023-07-20T14:23:40;19.50;99.90
7842;DHT22;3966;51.052;13.820;2023-07-20T14:26:06;19.50;99.90
7842;DHT22;3966;51.052;13.820;2023-07-20T14:28:33;19.30;99.90
7842;DHT22;3966;51.052;13.820;2023-07-20T14:30:58;19.50;99.90
7842;DHT22;3966;51.052;13.820;2023-07-20T14:33:24;19.40;99.90
7842;DHT22;3966;51.052;13.820;2023-07-20T14:35:57;19.60;99.90
7842;DHT22;3966;51.052;13.820;2023-07-20T14:38:24;19.40;99.90
7842;DHT22;3966;51.052;13.820;2023-07-20T14:40:51;19.40;99.90
7842;DHT22;3966;51.052;13.820;2023-07-20T14:43:16;19.50;99.90
7842;DHT22;3966;51.052;13.820;2023-07-20T14:45:42;19.70;99.90
7842;DHT22;3966;51.052;13.820;2023-07-20T14:48:08;20.10;99.90
7842;DHT22;3966;51.052;13.820;2023-07-20T14:50:34;20.90;99.90
7842;DHT22;3966;51.052;13.820;2023-07-20T14:53:00;21.40;99.90
7842;DHT22;3966;51.052;13.820;2023-07-20T14:55:26;21.40;99.90
7842;DHT22;3966;51.052;13.820;2023-07-20T14:57:52;21.00;99.90
7842;DHT22;3966;51.052;13.820;2023-07-20T15:00:17;20.80;99.90
7842;DHT22;3966;51.052;13.820;2023-07-20T15:02:43;21.40;99.90
7842;DHT22;3966;51.052;13.820;2023-07-20T15:05:10;21.80;99.90
7842;DHT22;3966;51.052;13.820;2023-07-20T15:07:36;22.20;99.90
7842;DHT22;3966;51.052;13.820;2023-07-20T15:10:03;21.90;99.90
7842;DHT22;3966;51.052;13.820;2023-07-20T15:12:30;22.60;99.90
7842;DHT22;3966;51.052;13.820;2023-07-20T15:15:11;22.90;99.90
7842;DHT22;3966;51.052;13.820;2023-07-20T15:17:38;22.80;99.90
7842;DHT22;3966;51.052;13.820;2023-07-20T15:20:05;22.90;99.90
7842;DHT22;3966;51.052;13.820;2023-07-20T15:22:32;23.00;99.90
7842;DHT22;3966;51.052;13.820;2023-07-20T15:24:57;23.00;99.90
7842;DHT22;3966;51.052;13.820;2023-07-20T15:27:23;22.70;99.90
7842;DHT22;3966;51.052;13.820;2023-07-20T15:29:49;22.40;99.90
7842;DHT22;3966;51.052;13.820;2023-07-20T15:32:17;22.20;99.90
7842;DHT22;3966;51.052;13.820;2023-07-20T15:34:43;22.30;99.90
7842;DHT22;3966;51.052;13.820;2023-07-20T15:37:09;22.40;99.90
7842;DHT22;3966;51.052;13.820;2023-07-20T15:39:36;22.90;99.90
7842;DHT22;3966;51.052;13.820;2023-07-20T15:42:01;23.60;99.90
7842;DHT22;3966;51.052;13.820;2023-07-20T15:44:27;23.20;99.90
7842;DHT22;3966;51.052;13.820;2023-07-20T15:46:53;23.00;99.90
7842;DHT22;3966;51.052;13.820;2023-07-20T15:49:19;23.30;99.90
7842;DHT22;3966;51.052;13.820;2023-07-20T15:51:44;23.20;99.90
7842;DHT22;3966;51.052;13.820;2023-07-20T15:54:12;23.40;99.90
7842;DHT22;3966;51.052;13.820;2023-07-20T15:56:39;23.10;99.90